Time;durP1;ratioP1;P1;durP2;ratioP2;P2;SDS_P1;SDS_P2;PMS_P1;PMS_P2;Temp;Humidity;BMP_temperature;BMP_pressure;BME280_temperature;BME280_humidity;BME280_pressure;Samples;Min_cycle;Max_cycle;Signal;HPM_P1;HPM_P2
2023/04/14 00:00:47;;;;;;;5.30;1.50;;;;;;;9.98;66.90;100423.28;5059461;28;20053;-66
2023/04/14 00:03:16;;;;;;;6.78;1.70;;;;;;;9.93;66.98;100420.66;5076301;28;20056;-65
2023/04/14 00:05:43;;;;;;;5.18;1.50;;;;;;;9.86;67.33;100425.00;5042761;28;20049;-66
2023/04/14 00:08:11;;;;;;;5.18;1.48;;;;;;;10.10;66.77;100428.22;5056950;28;20052;-66
2023/04/14 00:10:38;;;;;;;7.32;1.63;;;;;;;10.10;66.63;100420.78;5058590;28;20051;-66
2023/04/14 00:13:05;;;;;;;4.85;1.40;;;;;;;9.83;67.14;100418.16;5076158;28;20068;-65
2023/04/14 00:15:32;;;;;;;3.85;1.33;;;;;;;9.74;67.99;100413.75;5074832;28;20057;-65
2023/04/14 00:18:00;;;;;;;4.80;1.48;;;;;;;9.79;67.78;100417.19;5075540;28;20052;-65
2023/04/14 00:20:27;;;;;;;4.60;1.35;;;;;;;9.78;67.50;100415.56;5075215;28;20060;-66
2023/04/14 00:22:54;;;;;;;4.47;1.50;;;;;;;9.79;67.46;100406.19;5074901;28;20059;-65
2023/04/14 00:25:22;;;;;;;5.50;1.60;;;;;;;9.72;67.38;100408.59;5093097;28;20052;-65
2023/04/14 00:27:49;;;;;;;4.72;1.45;;;;;;;9.87;67.84;100401.84;5073847;28;20040;-66
2023/04/14 00:30:16;;;;;;;3.65;1.40;;;;;;;9.40;68.79;100406.09;5075094;28;20044;-65
2023/04/14 00:32:44;;;;;;;3.63;1.30;;;;;;;9.47;68.71;100402.91;5056284;28;20056;-66
2023/04/14 00:35:11;;;;;;;5.38;1.38;;;;;;;9.55;68.68;100402.97;5073471;28;20072;-65
2023/04/14 00:37:38;;;;;;;4.63;1.52;;;;;;;9.20;69.47;100411.28;5074215;28;20388;-65
2023/04/14 00:40:08;;;;;;;2.72;1.30;;;;;;;9.07;70.20;100413.78;5074324;28;20043;-65
2023/04/14 00:42:45;;;;;;;4.30;1.50;;;;;;;9.25;69.86;100401.00;5066194;28;20048;-66
2023/04/14 00:45:13;;;;;;;5.22;1.50;;;;;;;9.57;69.35;100391.66;5055767;28;20563;-66
2023/04/14 00:47:45;;;;;;;5.30;1.40;;;;;;;9.83;68.38;100389.88;5059439;28;20076;-65
2023/04/14 00:50:14;;;;;;;5.07;1.30;;;;;;;9.83;67.97;100389.88;5057771;28;20420;-65
2023/04/14 00:52:43;;;;;;;4.75;1.20;;;;;;;9.62;68.43;100388.78;5072795;28;20048;-64
2023/04/14 00:55:10;;;;;;;4.85;1.80;;;;;;;9.67;68.35;100399.66;5057285;28;20053;-65
2023/04/14 00:57:38;;;;;;;5.30;1.67;;;;;;;9.55;68.74;100394.75;5071371;28;20048;-65
2023/04/14 01:00:07;;;;;;;6.10;1.85;;;;;;;9.60;68.18;100391.03;5072536;28;20044;-65
2023/04/14 01:02:34;;;;;;;6.03;1.70;;;;;;;9.65;68.50;100393.66;5061826;28;20249;-65
2023/04/14 01:05:02;;;;;;;4.93;1.50;;;;;;;9.48;68.59;100393.53;5053923;28;20084;-65
2023/04/14 01:07:30;;;;;;;5.00;1.50;;;;;;;9.22;69.79;100403.56;5079915;28;20048;-65
2023/04/14 01:09:57;;;;;;;4.43;1.70;;;;;;;9.40;69.97;100394.28;5054824;28;20095;-65
2023/04/14 01:12:41;;;;;;;5.05;1.85;;;;;;;9.22;70.28;100398.06;5071130;28;20052;-66
2023/04/14 01:15:24;;;;;;;5.05;1.55;;;;;;;9.32;70.17;100386.81;5059075;28;20045;-65
2023/04/14 01:18:13;;;;;;;4.03;1.50;;;;;;;9.57;69.59;100395.22;5089217;28;20784;-65
2023/04/14 01:20:43;;;;;;;3.35;1.65;;;;;;;9.51;69.29;100390.16;5054052;28;20057;-66
2023/04/14 01:23:16;;;;;;;4.03;1.40;;;;;;;9.34;70.11;100392.81;5073594;28;20049;-66
2023/04/14 01:26:12;;;;;;;5.90;1.63;;;;;;;9.42;69.96;100389.28;5072240;28;20041;-64
2023/04/14 01:29:13;;;;;;;2.70;1.02;;;;;;;9.45;69.47;100383.97;5068466;28;20061;-66
2023/04/14 01:31:46;;;;;;;3.45;1.40;;;;;;;9.41;69.64;100394.00;5085281;28;20052;-66
2023/04/14 01:34:24;;;;;;;5.00;1.42;;;;;;;9.20;70.27;100392.88;5068170;28;20048;-66
2023/04/14 01:37:03;;;;;;;5.03;1.15;;;;;;;9.25;70.45;100390.00;5047757;28;20080;-66
2023/04/14 01:39:34;;;;;;;5.00;1.50;;;;;;;9.23;70.40;100384.00;5036984;28;20045;-66
2023/04/14 01:42:06;;;;;;;3.22;1.20;;;;;;;9.34;69.94;100381.81;5068487;28;20049;-65
2023/04/14 01:44:35;;;;;;;6.15;1.40;;;;;;;9.27;70.26;100387.75;5056911;28;20147;-65
2023/04/14 01:47:07;;;;;;;6.03;1.20;;;;;;;9.42;69.85;100387.38;5044851;28;20067;-66
2023/04/14 01:49:37;;;;;;;4.47;1.20;;;;;;;9.17;69.92;100385.22;5063931;28;20510;-66
2023/04/14 01:52:08;;;;;;;3.20;1.30;;;;;;;9.04;70.88;100386.94;5071536;28;20083;-65
2023/04/14 01:54:38;;;;;;;3.75;1.20;;;;;;;9.00;71.03;100383.19;5055475;28;20036;-66
2023/04/14 01:57:06;;;;;;;5.03;1.52;;;;;;;8.92;71.23;100386.69;5054520;28;20052;-66
2023/04/14 01:59:35;;;;;;;3.70;1.55;;;;;;;8.88;71.85;100382.91;5055035;28;20063;-66
2023/04/14 02:02:07;;;;;;;4.60;1.30;;;;;;;8.65;72.09;100381.25;5053644;28;20056;-65
2023/04/14 02:04:35;;;;;;;2.85;1.48;;;;;;;8.54;73.17;100384.53;5071297;28;20492;-65
2023/04/14 02:07:04;;;;;;;4.97;1.58;;;;;;;8.62;72.93;100384.63;5078829;28;20045;-66
2023/04/14 02:09:33;;;;;;;3.92;1.38;;;;;;;8.64;73.19;100390.63;5053044;28;20053;-66
2023/04/14 02:12:02;;;;;;;3.83;1.23;;;;;;;8.86;72.28;100398.06;5066352;28;20052;-66
2023/04/14 02:14:30;;;;;;;8.23;1.50;;;;;;;8.69;72.68;100397.91;5055691;28;20049;-65
2023/04/14 02:16:58;;;;;;;3.30;1.60;;;;;;;8.65;72.14;100400.47;5082461;28;20412;-66
2023/04/14 02:19:26;;;;;;;4.65;1.40;;;;;;;8.93;72.23;100398.47;5054099;28;20587;-65
2023/04/14 02:21:54;;;;;;;6.43;1.80;;;;;;;9.11;71.42;100394.75;5065982;28;20071;-65
2023/04/14 02:24:22;;;;;;;6.80;1.80;;;;;;;8.98;70.82;100395.59;5052507;28;20055;-66
2023/04/14 02:27:06;;;;;;;4.05;1.70;;;;;;;8.70;72.14;100383.88;5064056;28;20052;-66
2023/04/14 02:29:35;;;;;;;3.55;1.52;;;;;;;8.54;73.15;100396.31;5037766;28;20056;-65
2023/04/14 02:32:03;;;;;;;8.20;1.55;;;;;;;8.40;73.97;100383.75;5068419;28;20071;-65
2023/04/14 02:34:34;;;;;;;6.93;1.63;;;;;;;8.59;73.19;100384.44;5088142;28;20041;-65
2023/04/14 02:37:09;;;;;;;6.35;1.80;;;;;;;8.72;73.39;100378.91;5037738;28;20048;-65
2023/04/14 02:39:41;;;;;;;5.40;1.60;;;;;;;8.85;72.66;100378.06;5072510;28;20058;-64
2023/04/14 02:42:16;;;;;;;4.38;1.70;;;;;;;8.72;73.05;100387.13;5070652;28;20566;-65
2023/04/14 02:44:49;;;;;;;4.45;1.80;;;;;;;8.74;72.82;100375.84;5037858;28;20059;-65
2023/04/14 02:47:26;;;;;;;4.03;1.50;;;;;;;8.57;73.62;100371.00;5034290;28;20052;-64
2023/04/14 02:49:58;;;;;;;4.53;1.50;;;;;;;8.64;73.84;100368.66;5071214;28;20063;-65
2023/04/14 02:52:28;;;;;;;4.13;1.80;;;;;;;8.78;73.49;100361.19;5069080;28;20225;-66
2023/04/14 02:54:56;;;;;;;4.47;1.83;;;;;;;8.72;73.52;100362.41;5071266;28;20056;-65
2023/04/14 02:57:28;;;;;;;3.90;1.70;;;;;;;8.64;73.51;100363.16;5038167;28;20059;-65
2023/04/14 02:59:57;;;;;;;5.57;1.63;;;;;;;8.62;73.99;100359.09;5071579;28;20151;-65
2023/04/14 03:02:25;;;;;;;4.40;1.73;;;;;;;8.66;73.68;100354.63;5030735;28;20059;-65
2023/04/14 03:05:07;;;;;;;4.43;1.80;;;;;;;8.61;73.54;100344.53;5051397;28;20065;-65
2023/04/14 03:07:50;;;;;;;5.05;1.88;;;;;;;8.50;74.52;100350.59;5055569;28;20060;-65
2023/04/14 03:10:18;;;;;;;6.32;1.65;;;;;;;8.66;73.92;100343.63;5046281;28;20049;-64
2023/04/14 03:12:47;;;;;;;4.55;1.83;;;;;;;8.36;74.98;100344.31;5038188;28;20064;-66
2023/04/14 03:15:15;;;;;;;3.92;1.63;;;;;;;8.53;74.57;100338.97;5066581;28;20068;-66
2023/04/14 03:17:46;;;;;;;5.30;2.10;;;;;;;8.49;74.78;100332.50;5070040;28;20504;-65
2023/04/14 03:20:18;;;;;;;7.47;2.08;;;;;;;8.53;74.96;100337.06;5056605;28;20056;-66
2023/04/14 03:22:49;;;;;;;4.40;1.90;;;;;;;8.59;74.51;100330.34;5057121;28;20057;-65
2023/04/14 03:25:16;;;;;;;6.90;2.40;;;;;;;8.58;74.44;100328.69;5077233;28;20052;-64
2023/04/14 03:27:47;;;;;;;4.43;2.10;;;;;;;8.72;74.42;100328.66;5074677;28;20135;-65
2023/04/14 03:30:14;;;;;;;7.03;1.98;;;;;;;8.59;74.19;100330.34;5064159;28;20057;-64
2023/04/14 03:32:42;;;;;;;4.95;1.90;;;;;;;8.72;74.03;100326.72;5057800;28;20060;-65
2023/04/14 03:35:14;;;;;;;5.00;2.10;;;;;;;8.85;73.89;100314.06;5059062;28;20049;-65
2023/04/14 03:37:42;;;;;;;5.65;1.90;;;;;;;8.73;74.19;100327.53;5073980;28;20059;-66
2023/04/14 03:40:10;;;;;;;5.85;2.00;;;;;;;9.13;73.60;100323.00;5045849;28;20723;-66
2023/04/14 03:42:43;;;;;;;4.20;1.80;;;;;;;8.71;73.85;100332.53;5073896;28;20056;-65
2023/04/14 03:45:14;;;;;;;4.20;1.58;;;;;;;8.66;74.03;100332.66;5054389;28;20041;-64
2023/04/14 03:47:42;;;;;;;3.88;2.10;;;;;;;8.55;74.71;100339.50;5056723;28;20049;-65
2023/04/14 03:50:11;;;;;;;6.05;2.30;;;;;;;8.57;74.85;100331.75;5074964;28;20048;-65
2023/04/14 03:52:40;;;;;;;4.65;2.13;;;;;;;8.68;74.70;100325.72;5040655;28;20063;-64
2023/04/14 03:55:11;;;;;;;4.05;1.90;;;;;;;9.01;73.90;100329.84;5058302;28;20052;-65
2023/04/14 03:57:41;;;;;;;6.88;2.30;;;;;;;8.49;75.07;100329.75;5054060;28;20057;-65
2023/04/14 04:00:12;;;;;;;5.22;2.20;;;;;;;8.70;74.87;100328.19;5056904;28;20052;-66
2023/04/14 04:02:43;;;;;;;3.65;1.70;;;;;;;8.39;75.53;100327.22;5088614;28;20057;-65
2023/04/14 04:05:11;;;;;;;5.93;2.28;;;;;;;8.25;76.64;100332.75;5048186;28;20052;-64
2023/04/14 04:07:40;;;;;;;7.20;2.55;;;;;;;8.11;76.39;100323.69;5056823;28;20534;-65
2023/04/14 04:10:08;;;;;;;5.57;2.08;;;;;;;8.14;76.67;100322.28;5070664;28;20052;-65
2023/04/14 04:12:37;;;;;;;4.43;1.90;;;;;;;8.24;76.70;100311.09;5073563;28;20051;-65
2023/04/14 04:15:07;;;;;;;5.15;1.90;;;;;;;8.33;75.74;100320.25;5053187;28;20048;-64
2023/04/14 04:17:36;;;;;;;8.32;2.20;;;;;;;8.41;76.12;100317.56;5090897;28;20048;-66
2023/04/14 04:20:09;;;;;;;6.30;1.75;;;;;;;8.55;75.22;100315.59;5073945;28;20054;-65
2023/04/14 04:22:38;;;;;;;4.93;2.00;;;;;;;8.51;74.73;100313.78;5056741;28;20527;-65
2023/04/14 04:25:07;;;;;;;4.05;1.85;;;;;;;8.70;75.20;100315.25;5072623;28;20059;-65
2023/04/14 04:27:36;;;;;;;11.20;2.50;;;;;;;8.49;74.79;100313.28;5066669;28;20057;-65
2023/04/14 04:30:12;;;;;;;8.25;2.13;;;;;;;8.51;75.19;100303.63;5056010;28;20500;-65
2023/04/14 04:32:40;;;;;;;8.52;2.50;;;;;;;8.71;74.84;100300.41;5036085;28;20060;-66
2023/04/14 04:35:10;;;;;;;6.13;2.20;;;;;;;8.57;75.01;100305.13;5074339;28;20518;-67
2023/04/14 04:37:41;;;;;;;5.00;2.50;;;;;;;8.60;74.66;100299.00;5056844;28;20524;-66
2023/04/14 04:40:10;;;;;;;5.20;2.17;;;;;;;8.38;75.50;100300.91;5043407;28;20057;-65
2023/04/14 04:42:41;;;;;;;7.00;2.42;;;;;;;8.30;75.93;100302.44;5073073;28;20048;-65
2023/04/14 04:45:12;;;;;;;5.40;2.30;;;;;;;8.47;75.62;100299.06;5068063;28;20067;-66
2023/04/14 04:47:40;;;;;;;7.70;2.70;;;;;;;8.49;74.96;100296.81;5072427;28;20060;-66
2023/04/14 04:50:08;;;;;;;6.93;2.55;;;;;;;8.62;75.40;100294.03;5075614;28;20059;-66
2023/04/14 04:52:35;;;;;;;5.72;2.55;;;;;;;8.78;74.65;100281.56;5059460;28;20049;-66
2023/04/14 04:55:03;;;;;;;4.65;2.10;;;;;;;8.79;73.80;100283.16;5071495;28;20072;-66
2023/04/14 04:57:30;;;;;;;5.13;2.30;;;;;;;8.86;74.23;100277.22;5073071;28;20044;-65
2023/04/14 04:59:58;;;;;;;6.95;2.95;;;;;;;9.02;73.30;100282.03;5071055;28;20072;-65
2023/04/14 05:02:25;;;;;;;7.63;2.88;;;;;;;8.80;73.18;100273.78;5071992;28;20056;-65
2023/04/14 05:04:52;;;;;;;6.40;2.67;;;;;;;8.47;74.43;100280.63;5067833;28;20128;-66
2023/04/14 05:07:20;;;;;;;6.10;3.03;;;;;;;8.23;75.93;100287.50;5074069;28;20060;-65
2023/04/14 05:09:48;;;;;;;8.70;3.17;;;;;;;8.51;75.17;100280.84;5067775;28;20048;-67
2023/04/14 05:12:15;;;;;;;5.45;2.70;;;;;;;8.31;76.00;100273.09;5071165;28;20045;-66
2023/04/14 05:14:43;;;;;;;5.07;2.63;;;;;;;8.59;75.21;100266.38;5074604;28;20063;-66
2023/04/14 05:17:10;;;;;;;6.72;3.00;;;;;;;8.56;74.87;100264.28;5070056;28;20060;-67
2023/04/14 05:19:37;;;;;;;10.20;3.13;;;;;;;8.57;75.32;100252.16;5074937;28;20053;-66
2023/04/14 05:22:05;;;;;;;9.88;2.95;;;;;;;8.42;75.62;100247.84;5069665;28;20064;-67
2023/04/14 05:24:32;;;;;;;7.60;2.97;;;;;;;8.24;76.24;100259.78;5073757;28;20123;-66
2023/04/14 05:27:00;;;;;;;9.05;2.97;;;;;;;8.00;77.25;100254.53;5071892;28;20054;-66
2023/04/14 05:29:40;;;;;;;7.63;3.00;;;;;;;7.85;78.36;100259.53;5085725;28;20450;-66
2023/04/14 05:32:07;;;;;;;7.65;3.38;;;;;;;8.03;78.19;100258.59;5061890;28;20076;-67
2023/04/14 05:34:35;;;;;;;7.03;3.10;;;;;;;8.26;77.86;100263.06;5056035;28;20491;-68
2023/04/14 05:37:02;;;;;;;5.97;3.20;;;;;;;8.28;77.23;100254.50;5070708;28;20064;-65
2023/04/14 05:39:29;;;;;;;9.55;3.40;;;;;;;8.27;77.47;100253.69;5072056;28;20056;-65
2023/04/14 05:41:58;;;;;;;10.38;4.00;;;;;;;8.04;77.29;100251.97;5072731;28;20056;-66
2023/04/14 05:44:25;;;;;;;9.57;4.00;;;;;;;8.17;77.59;100251.16;5071984;28;20501;-67
2023/04/14 05:46:53;;;;;;;9.60;3.60;;;;;;;8.02;77.55;100251.47;5071764;28;20053;-66
2023/04/14 05:49:20;;;;;;;8.15;3.50;;;;;;;7.88;79.01;100250.66;5056123;28;20056;-65
2023/04/14 05:51:48;;;;;;;8.23;3.33;;;;;;;7.93;78.67;100254.13;5086793;28;20045;-65
2023/04/14 05:54:15;;;;;;;9.35;3.90;;;;;;;7.73;79.48;100245.53;5074141;28;20052;-66
2023/04/14 05:56:42;;;;;;;7.97;3.53;;;;;;;7.83;79.36;100248.03;5072072;28;20409;-66
2023/04/14 05:59:10;;;;;;;6.65;3.60;;;;;;;7.79;79.97;100241.56;5072837;28;20053;-67
2023/04/14 06:01:37;;;;;;;10.95;4.30;;;;;;;7.70;79.93;100232.44;5070869;28;20037;-66
2023/04/14 06:04:04;;;;;;;8.43;4.30;;;;;;;7.56;80.90;100243.41;5070977;28;20052;-66
2023/04/14 06:06:33;;;;;;;8.30;3.80;;;;;;;7.76;80.80;100242.97;5072312;28;20044;-67
2023/04/14 06:09:00;;;;;;;8.90;4.22;;;;;;;7.49;81.01;100242.19;5039898;28;20060;-66
2023/04/14 06:11:28;;;;;;;8.07;4.28;;;;;;;7.57;81.33;100234.06;5071111;28;20056;-67
2023/04/14 06:13:55;;;;;;;12.60;4.40;;;;;;;7.42;81.74;100242.59;5073616;28;20055;-66
2023/04/14 06:16:22;;;;;;;9.02;5.25;;;;;;;7.81;81.24;100239.34;5063930;28;20045;-66
2023/04/14 06:18:50;;;;;;;12.57;4.80;;;;;;;8.08;79.22;100242.03;5068727;28;20063;-67
2023/04/14 06:21:17;;;;;;;7.55;4.47;;;;;;;8.34;78.32;100228.56;5066663;28;20059;-65
2023/04/14 06:23:44;;;;;;;8.70;4.45;;;;;;;7.95;78.85;100231.88;5066469;28;20063;-65
2023/04/14 06:26:12;;;;;;;11.05;4.90;;;;;;;7.93;79.55;100239.63;5064961;28;20059;-66
2023/04/14 06:28:39;;;;;;;8.32;4.20;;;;;;;8.14;79.50;100231.75;5056076;28;20431;-66
2023/04/14 06:31:10;;;;;;;9.13;4.72;;;;;;;7.93;79.70;100231.41;5052482;28;20040;-67
2023/04/14 06:33:37;;;;;;;9.95;4.97;;;;;;;8.04;79.05;100232.78;5072172;28;20041;-66
2023/04/14 06:36:04;;;;;;;10.05;5.22;;;;;;;7.95;79.47;100224.47;5072252;28;20048;-66
2023/04/14 06:38:32;;;;;;;11.93;5.78;;;;;;;7.92;79.48;100216.88;5061627;28;20052;-65
2023/04/14 06:40:59;;;;;;;8.68;5.88;;;;;;;8.03;79.39;100220.19;5086710;28;20059;-67
2023/04/14 06:43:27;;;;;;;13.15;5.70;;;;;;;8.13;79.22;100208.16;5064290;28;20056;-66
2023/04/14 06:45:55;;;;;;;11.60;6.43;;;;;;;8.07;78.88;100207.50;5061465;28;20054;-67
2023/04/14 06:48:23;;;;;;;13.15;7.28;;;;;;;7.68;80.65;100207.25;5071824;28;20052;-66
2023/04/14 06:50:54;;;;;;;9.75;7.10;;;;;;;7.94;80.48;100197.34;5063123;28;20071;-66
2023/04/14 06:53:22;;;;;;;10.75;6.95;;;;;;;7.90;80.52;100193.59;5052454;28;20048;-67
2023/04/14 06:55:57;;;;;;;11.73;6.65;;;;;;;8.26;80.27;100186.22;5073036;28;20048;-67
2023/04/14 06:58:28;;;;;;;10.48;6.13;;;;;;;8.44;78.77;100182.47;5057816;28;20053;-68
2023/04/14 07:00:59;;;;;;;14.50;6.88;;;;;;;8.52;78.15;100187.22;5058965;28;20057;-67
2023/04/14 07:03:29;;;;;;;13.50;6.95;;;;;;;8.51;78.06;100193.81;5051009;28;20056;-66
2023/04/14 07:06:10;;;;;;;11.45;6.88;;;;;;;8.60;78.82;100194.69;5056868;28;20052;-68
2023/04/14 07:08:39;;;;;;;10.15;6.70;;;;;;;8.39;78.79;100192.75;5060883;28;20578;-65
2023/04/14 07:11:09;;;;;;;11.15;6.38;;;;;;;8.83;78.34;100188.06;5060694;28;20044;-64
2023/04/14 07:13:39;;;;;;;10.38;6.78;;;;;;;9.20;76.78;100194.22;5055844;28;20059;-65
2023/04/14 07:16:07;;;;;;;11.00;6.80;;;;;;;9.02;76.25;100190.56;5057508;28;20491;-63
2023/04/14 07:18:35;;;;;;;12.80;7.40;;;;;;;8.64;78.22;100197.63;5073290;28;20049;-64
2023/04/14 07:21:02;;;;;;;10.43;6.50;;;;;;;8.70;78.16;100183.44;5056785;28;21744;-64
2023/04/14 07:23:32;;;;;;;13.35;6.75;;;;;;;9.18;77.22;100183.53;5057136;28;20059;-65
2023/04/14 07:25:59;;;;;;;11.90;7.40;;;;;;;9.22;76.21;100187.28;5062018;28;20084;-64
2023/04/14 07:28:27;;;;;;;11.70;7.03;;;;;;;9.05;75.71;100179.75;5062118;28;20045;-64
2023/04/14 07:30:54;;;;;;;18.05;7.40;;;;;;;9.13;75.84;100170.75;5058867;28;20068;-63
2023/04/14 07:33:22;;;;;;;11.48;6.93;;;;;;;9.05;75.93;100174.28;5066113;28;20052;-63
2023/04/14 07:35:51;;;;;;;15.45;6.10;;;;;;;9.00;76.60;100176.34;5064112;28;20052;-63
2023/04/14 07:38:30;;;;;;;9.90;4.85;;;;;;;8.91;77.67;100170.81;5060511;28;20044;-63
2023/04/14 07:40:58;;;;;;;11.32;5.20;;;;;;;9.18;76.38;100158.81;5056575;28;20056;-63
2023/04/14 07:43:26;;;;;;;12.68;5.20;;;;;;;9.39;75.10;100157.13;5063166;28;20574;-65
2023/04/14 07:45:53;;;;;;;11.75;5.10;;;;;;;9.31;75.09;100146.09;5062005;28;20480;-64
2023/04/14 07:48:20;;;;;;;8.40;4.35;;;;;;;9.45;74.21;100141.28;5056197;28;20052;-64
2023/04/14 07:50:51;;;;;;;15.32;4.10;;;;;;;9.45;74.47;100138.53;5058378;28;20056;-64
2023/04/14 07:53:18;;;;;;;7.63;4.05;;;;;;;9.46;74.86;100131.91;5059791;28;20044;-64
2023/04/14 07:55:45;;;;;;;9.55;4.18;;;;;;;9.84;73.54;100131.00;5061772;28;20060;-64
2023/04/14 07:58:13;;;;;;;8.43;4.65;;;;;;;9.50;73.87;100136.41;5062627;28;20056;-65
2023/04/14 08:00:42;;;;;;;13.85;5.15;;;;;;;9.39;74.67;100129.63;5057110;28;20049;-64
2023/04/14 08:03:09;;;;;;;7.50;4.15;;;;;;;9.33;75.03;100133.63;5067308;28;20051;-64
2023/04/14 08:05:37;;;;;;;7.70;3.85;;;;;;;9.53;74.46;100132.22;5056296;28;20053;-63
2023/04/14 08:08:04;;;;;;;8.35;4.30;;;;;;;9.59;73.71;100130.97;5065735;28;20040;-65
2023/04/14 08:10:31;;;;;;;12.38;4.43;;;;;;;9.37;73.74;100137.38;5063101;28;20116;-64
2023/04/14 08:12:59;;;;;;;6.22;3.70;;;;;;;9.27;74.26;100126.69;5067387;28;20048;-65
2023/04/14 08:15:31;;;;;;;10.55;3.63;;;;;;;9.18;75.17;100116.78;5067567;28;20059;-67
2023/04/14 08:17:58;;;;;;;10.10;4.00;;;;;;;9.42;75.04;100126.22;5062205;28;20051;-66
2023/04/14 08:20:25;;;;;;;10.13;4.32;;;;;;;9.44;74.29;100126.72;5058904;28;20753;-64
2023/04/14 08:22:55;;;;;;;9.10;4.25;;;;;;;9.44;75.11;100131.41;5061144;28;20040;-65
2023/04/14 08:25:23;;;;;;;17.02;4.30;;;;;;;9.56;74.63;100110.41;5066626;28;20154;-65
2023/04/14 08:27:50;;;;;;;8.32;3.90;;;;;;;9.68;73.77;100120.75;5064807;28;20052;-64
2023/04/14 08:30:17;;;;;;;9.20;3.55;;;;;;;9.60;74.25;100124.31;5047469;28;20048;-64
2023/04/14 08:32:45;;;;;;;11.38;3.85;;;;;;;9.62;73.91;100122.06;5063118;28;20052;-64
2023/04/14 08:35:13;;;;;;;8.70;3.50;;;;;;;9.77;73.92;100116.09;5068126;28;20048;-66
2023/04/14 08:38:01;;;;;;;10.18;3.30;;;;;;;9.48;74.58;100118.66;5069629;28;20049;-66
2023/04/14 08:40:37;;;;;;;9.63;3.60;;;;;;;9.44;74.91;100114.91;5072646;28;20140;-65
2023/04/14 08:43:04;;;;;;;8.52;3.20;;;;;;;9.60;74.85;100116.06;5055010;28;20106;-66
2023/04/14 08:45:32;;;;;;;15.88;3.38;;;;;;;9.52;75.03;100119.63;5058430;28;20048;-66
2023/04/14 08:48:01;;;;;;;11.55;3.17;;;;;;;9.47;74.96;100097.78;5056982;28;20048;-63
2023/04/14 08:50:36;;;;;;;9.32;3.50;;;;;;;9.52;74.66;100106.69;5061482;28;20057;-64
2023/04/14 08:53:08;;;;;;;8.77;3.33;;;;;;;9.49;75.53;100104.56;5059681;28;20067;-65
2023/04/14 08:55:40;;;;;;;5.93;2.80;;;;;;;9.71;74.84;100103.66;5071271;28;20065;-65
2023/04/14 08:58:09;;;;;;;10.75;2.80;;;;;;;9.66;74.75;100092.81;5044449;28;20057;-66
2023/04/14 09:00:38;;;;;;;5.70;2.95;;;;;;;9.68;74.83;100090.50;5062138;28;20049;-64
2023/04/14 09:03:07;;;;;;;6.97;2.47;;;;;;;9.86;74.24;100087.47;5058207;28;20037;-65
2023/04/14 09:05:36;;;;;;;9.23;2.72;;;;;;;9.88;73.95;100082.47;5060054;28;20067;-65
2023/04/14 09:08:04;;;;;;;14.93;3.13;;;;;;;9.93;73.61;100092.47;5067294;28;20053;-66
2023/04/14 09:10:31;;;;;;;11.23;3.20;;;;;;;9.87;73.73;100088.25;5065520;28;20702;-66
2023/04/14 09:13:00;;;;;;;8.57;3.30;;;;;;;9.83;73.70;100074.34;5045100;28;20053;-66
2023/04/14 09:15:27;;;;;;;8.55;3.42;;;;;;;9.70;74.97;100072.56;5067138;28;20045;-64
2023/04/14 09:17:56;;;;;;;12.60;3.30;;;;;;;10.07;74.08;100071.09;5062844;28;20071;-65
2023/04/14 09:20:24;;;;;;;10.85;3.15;;;;;;;10.28;73.43;100069.31;5065422;28;20060;-65
2023/04/14 09:23:08;;;;;;;8.30;2.88;;;;;;;10.21;72.49;100071.75;5065256;28;20044;-66
2023/04/14 09:25:37;;;;;;;8.43;3.13;;;;;;;10.01;73.01;100062.22;5067527;28;20547;-65
2023/04/14 09:28:05;;;;;;;6.72;2.58;;;;;;;10.12;73.41;100059.97;5060125;28;20400;-66
2023/04/14 09:30:33;;;;;;;8.93;3.15;;;;;;;10.19;72.80;100054.75;5070989;28;20424;-65
2023/04/14 09:33:05;;;;;;;8.23;2.53;;;;;;;9.99;73.08;100049.91;5052309;28;20041;-65
2023/04/14 09:35:47;;;;;;;9.70;3.13;;;;;;;9.97;74.19;100049.44;5067732;28;20052;-65
2023/04/14 09:38:30;;;;;;;10.02;2.95;;;;;;;10.20;73.31;100042.59;5063744;28;20047;-66
2023/04/14 09:40:57;;;;;;;10.23;2.88;;;;;;;10.63;71.99;100043.31;5064382;28;20048;-66
2023/04/14 09:43:26;;;;;;;9.75;2.80;;;;;;;10.62;71.46;100044.44;5071047;28;20051;-66
2023/04/14 09:45:54;;;;;;;8.18;2.78;;;;;;;10.81;70.96;100033.81;5068400;28;20068;-65
2023/04/14 09:48:23;;;;;;;10.43;2.60;;;;;;;10.49;71.60;100034.44;5053074;28;20538;-64
2023/04/14 09:50:57;;;;;;;10.13;2.45;;;;;;;10.49;71.50;100042.72;5060026;28;20056;-66
2023/04/14 09:53:26;;;;;;;9.70;2.78;;;;;;;10.74;71.74;100027.22;5056951;28;20048;-66
2023/04/14 09:55:54;;;;;;;10.07;2.43;;;;;;;10.83;70.73;100023.28;5058261;28;20083;-68
2023/04/14 09:58:22;;;;;;;11.65;2.65;;;;;;;10.79;70.51;100027.03;5057529;28;20490;-66
2023/04/14 10:00:54;;;;;;;8.10;2.30;;;;;;;10.84;70.87;100021.34;5068286;28;20052;-68
2023/04/14 10:03:41;;;;;;;10.95;2.80;;;;;;;10.99;70.49;100023.50;5059860;28;20578;-68
2023/04/14 10:06:16;;;;;;;10.43;3.00;;;;;;;10.69;71.68;100017.19;5063861;28;20491;-68
2023/04/14 10:08:45;;;;;;;14.02;3.15;;;;;;;10.62;71.86;100018.81;5060363;28;20060;-68
2023/04/14 10:11:23;;;;;;;10.13;2.40;;;;;;;10.66;71.65;100014.28;5067093;28;20413;-69
2023/04/14 10:13:59;;;;;;;15.23;2.72;;;;;;;10.69;72.03;100021.88;5065291;28;20416;-68
2023/04/14 10:16:26;;;;;;;14.30;3.25;;;;;;;10.64;72.10;100017.38;5077705;28;20143;-66
2023/04/14 10:18:55;;;;;;;18.58;3.33;;;;;;;10.69;71.85;100019.94;5061814;28;20757;-68
2023/04/14 10:21:23;;;;;;;14.57;3.17;;;;;;;10.79;71.62;100016.03;5067478;28;20057;-68
2023/04/14 10:23:51;;;;;;;16.73;3.25;;;;;;;10.92;70.98;100015.78;5057339;28;20053;-67
2023/04/14 10:26:18;;;;;;;13.48;3.05;;;;;;;10.76;71.37;100002.88;5063954;28;20055;-67
2023/04/14 10:28:49;;;;;;;15.32;2.88;;;;;;;11.03;70.89;100003.25;5060795;28;20532;-68
2023/04/14 10:31:29;;;;;;;17.92;3.85;;;;;;;11.02;70.70;99998.03;5064088;28;20439;-65
2023/04/14 10:33:56;;;;;;;;;;;;;;;11.01;70.48;100001.94;5065165;28;20047;-67
2023/04/14 10:36:25;;;;;;;24.25;4.60;;;;;;;11.11;69.83;99991.34;5064147;28;19935;-68
2023/04/14 10:39:00;;;;;;;37.42;13.23;;;;;;;11.27;69.32;99981.34;5063287;28;20071;-68
2023/04/14 10:41:41;;;;;;;19.63;7.03;;;;;;;11.06;69.18;99986.03;5062469;28;20413;-66
2023/04/14 10:44:24;;;;;;;16.52;6.60;;;;;;;10.88;70.26;99975.47;5066497;28;20054;-68
2023/04/14 10:46:52;;;;;;;18.40;4.88;;;;;;;10.87;70.05;99968.31;5066243;28;20044;-66
2023/04/14 10:49:24;;;;;;;18.67;6.30;;;;;;;10.96;70.16;99974.59;5069813;28;20456;-67
2023/04/14 10:51:52;;;;;;;15.27;5.25;;;;;;;10.94;70.51;99974.13;5058889;28;20044;-67
2023/04/14 10:54:19;;;;;;;17.83;4.75;;;;;;;11.28;69.60;99966.41;5047755;28;20044;-63
2023/04/14 10:57:10;;;;;;;17.38;4.82;;;;;;;11.17;70.53;99962.47;5042682;28;20419;-65
2023/04/14 10:59:44;;;;;;;15.60;3.95;;;;;;;11.02;71.38;99957.53;5040900;28;20044;-65
2023/04/14 11:02:31;;;;;;;20.08;4.72;;;;;;;10.95;71.94;99957.25;5044199;28;20055;-64
2023/04/14 11:05:10;;;;;;;16.13;4.38;;;;;;;11.10;72.31;99955.84;5067637;28;20047;-66
2023/04/14 11:07:49;;;;;;;23.73;5.72;;;;;;;11.19;71.30;99945.56;5060320;28;20052;-65
2023/04/14 11:10:20;;;;;;;17.52;6.30;;;;;;;11.25;71.54;99944.22;5066135;28;20842;-65
2023/04/14 11:13:03;;;;;;;19.50;7.75;;;;;;;11.19;71.94;99946.38;5078628;28;20159;-68
2023/04/14 11:16:03;;;;;;;21.45;8.43;;;;;;;11.22;72.54;99931.94;5048927;28;20060;-65
2023/04/14 11:18:41;;;;;;;21.02;5.43;;;;;;;11.21;73.62;99926.72;5044838;28;20063;-67
2023/04/14 11:21:25;;;;;;;16.00;4.95;;;;;;;11.31;73.70;99916.09;5055350;28;20044;-64
2023/04/14 11:23:52;;;;;;;20.77;5.68;;;;;;;11.48;73.61;99912.41;5047056;28;20057;-68
2023/04/14 11:26:22;;;;;;;16.23;4.15;;;;;;;11.15;73.93;99909.63;5043504;28;20063;-64
2023/04/14 11:28:52;;;;;;;;;;;;;;;11.05;75.25;99906.44;5056757;28;20085;-65
2023/04/14 11:31:19;;;;;;;16.15;3.05;;;;;;;11.22;74.99;99900.78;5053665;28;19936;-66
2023/04/14 11:33:49;;;;;;;11.40;2.70;;;;;;;11.48;74.25;99897.78;5032031;28;20053;-64
2023/04/14 11:36:17;;;;;;;11.30;2.95;;;;;;;11.27;74.18;99906.09;5043706;28;20686;-66
2023/04/14 11:38:44;;;;;;;18.52;3.28;;;;;;;11.26;74.70;99907.25;5049309;28;20049;-63
2023/04/14 11:41:14;;;;;;;16.00;4.15;;;;;;;11.34;75.33;99903.59;5041584;28;21016;-65
2023/04/14 11:43:45;;;;;;;12.98;3.72;;;;;;;11.47;75.03;99898.94;5031457;28;20527;-68